Time;durP1;ratioP1;P1;durP2;ratioP2;P2;SDS_P1;SDS_P2;PMS_P1;PMS_P2;Temp;Humidity;BMP_temperature;BMP_pressure;BME280_temperature;BME280_humidity;BME280_pressure;Samples;Min_cycle;Max_cycle;Signal;HPM_P1;HPM_P2
2022/11/10 06:57:39;;;;;;;8.38;2.08;;;;;;;;;;10548596;27;20403;-82
2022/11/10 07:02:43;;;;;;;6.90;2.58;;;;;;;;;;10548113;28;20024;-82
2022/11/10 07:07:54;;;;;;;4.15;1.60;;;;;;;;;;10529418;28;20064;-82
2022/11/10 07:12:56;;;;;;;6.00;2.22;;;;;;;;;;10546844;28;20027;-82
2022/11/10 07:17:57;;;;;;;6.32;2.15;;;;;;;;;;10531051;28;20033;-82
2022/11/10 07:22:58;;;;;;;;;;;;;;;;;;10528463;28;20036;-82
2022/11/10 07:28:00;;;;;;;4.13;1.67;;;;;;;;;;10545335;28;19911;-80
2022/11/10 07:33:07;;;;;;;6.82;2.53;;;;;;;;;;10527616;28;20394;-80
2022/11/10 07:38:18;;;;;;;5.63;1.90;;;;;;;;;;10529680;28;20462;-81
2022/11/10 07:43:21;;;;;;;4.03;1.50;;;;;;;;;;10528721;28;20088;-82
2022/11/10 07:53:56;;;;;;;6.65;1.85;;;;;;;;;;10540710;22;20108;-80
2022/11/10 08:04:32;;;;;;;7.22;1.92;;;;;;;;;;10514000;28;20128;-80
2022/11/10 08:09:33;;;;;;;5.70;2.03;;;;;;;;;;10461812;28;20092;-78
2022/11/10 08:14:34;;;;;;;;;;;;;;;;;;10453581;28;20127;-79
2022/11/10 08:19:35;;;;;;;5.60;2.13;;;;;;;;;;10451586;28;19905;-81
2022/11/10 08:24:36;;;;;;;10.75;2.90;;;;;;;;;;10480198;28;20052;-80
2022/11/10 08:29:37;;;;;;;6.10;2.40;;;;;;;;;;10460417;28;20096;-82
2022/11/10 08:34:38;;;;;;;7.65;2.20;;;;;;;;;;10447949;28;20025;-81
2022/11/10 08:39:39;;;;;;;5.90;2.60;;;;;;;;;;10467951;28;20115;-80
2022/11/10 08:44:40;;;;;;;8.88;2.70;;;;;;;;;;10449533;28;20052;-81
2022/11/10 08:49:41;;;;;;;9.13;2.70;;;;;;;;;;10470864;28;20507;-80
2022/11/10 08:54:42;;;;;;;9.27;2.67;;;;;;;;;;10466918;28;20053;-81
2022/11/10 08:59:43;;;;;;;9.00;2.70;;;;;;;;;;10449266;28;20207;-80
2022/11/10 09:04:44;;;;;;;9.38;2.80;;;;;;;;;;10451028;28;20467;-81
2022/11/10 09:09:45;;;;;;;15.95;6.20;;;;;;;;;;10452453;28;20052;-81
2022/11/10 09:14:46;;;;;;;7.65;2.80;;;;;;;;;;10450252;28;20063;-81
2022/11/10 09:19:47;;;;;;;10.13;3.63;;;;;;;;;;10452440;28;20124;-80
2022/11/10 09:24:48;;;;;;;7.32;2.45;;;;;;;;;;10455828;28;20033;-80
2022/11/10 09:29:49;;;;;;;6.20;2.10;;;;;;;;;;10457887;28;20029;-83
2022/11/10 09:34:50;;;;;;;6.43;2.53;;;;;;;;;;10477413;28;20033;-81
2022/11/10 09:39:52;;;;;;;7.90;2.55;;;;;;;;;;10459958;28;20117;-81
2022/11/10 09:44:58;;;;;;;9.23;2.63;;;;;;;;;;10456050;28;20029;-84
2022/11/10 09:50:01;;;;;;;12.02;2.72;;;;;;;;;;10471742;28;20037;-81
2022/11/10 09:55:21;;;;;;;8.07;2.38;;;;;;;;;;10452941;28;20029;-81
2022/11/10 10:00:23;;;;;;;11.18;2.30;;;;;;;;;;10454085;28;20059;-83
2022/11/10 10:05:30;;;;;;;11.35;3.08;;;;;;;;;;10455689;28;20056;-81
2022/11/10 10:10:34;;;;;;;8.43;2.53;;;;;;;;;;10452814;28;20029;-82
2022/11/10 10:15:54;;;;;;;10.18;2.95;;;;;;;;;;10449715;28;20032;-81
2022/11/10 10:21:15;;;;;;;9.80;3.03;;;;;;;;;;10451453;28;20025;-81
2022/11/10 10:26:16;;;;;;;;;;;;;;;;;;10452110;28;20443;-81
2022/11/10 10:31:20;;;;;;;5.32;1.90;;;;;;;;;;10468087;28;19911;-82
2022/11/10 10:36:21;;;;;;;8.20;2.42;;;;;;;;;;10450163;28;20025;-82
2022/11/10 10:41:22;;;;;;;;;;;;;;;;;;10469632;28;20032;-81
2022/11/10 10:46:28;;;;;;;7.70;2.75;;;;;;;;;;10449162;28;19905;-81
2022/11/10 10:51:29;;;;;;;7.38;2.85;;;;;;;;;;10447933;28;20037;-81
2022/11/10 10:56:32;;;;;;;7.75;2.42;;;;;;;;;;10449635;28;20032;-80
2022/11/10 11:01:34;;;;;;;6.43;2.53;;;;;;;;;;10446410;28;20029;-81
2022/11/10 11:06:35;;;;;;;8.48;2.33;;;;;;;;;;10445333;28;20052;-82
2022/11/10 11:11:39;;;;;;;8.52;2.25;;;;;;;;;;10444650;28;20033;-81
2022/11/10 11:16:47;;;;;;;8.02;2.60;;;;;;;;;;10445467;28;20047;-82
2022/11/10 11:27:34;;;;;;;7.72;2.33;;;;;;;;;;10469742;28;20478;-80
2022/11/10 11:32:40;;;;;;;6.68;2.00;;;;;;;;;;10448009;28;20029;-83
2022/11/10 11:37:50;;;;;;;8.63;3.15;;;;;;;;;;10452500;28;20021;-82
2022/11/10 11:43:13;;;;;;;5.57;2.20;;;;;;;;;;10465857;28;20098;-82
2022/11/10 11:48:43;;;;;;;6.75;3.00;;;;;;;;;;10449922;28;20366;-82
2022/11/10 11:53:56;;;;;;;7.82;3.25;;;;;;;;;;10454323;28;20498;-82
2022/11/10 11:59:24;;;;;;;9.20;3.17;;;;;;;;;;10454649;28;20032;-82
2022/11/10 12:04:34;;;;;;;9.50;3.10;;;;;;;;;;10449024;28;20033;-82
2022/11/10 12:09:49;;;;;;;10.52;2.60;;;;;;;;;;10447777;28;20119;-82
2022/11/10 12:15:17;;;;;;;9.45;2.67;;;;;;;;;;10467524;28;20072;-82
2022/11/10 12:20:33;;;;;;;8.85;3.30;;;;;;;;;;10414546;28;20491;-82
2022/11/10 12:25:41;;;;;;;6.32;2.50;;;;;;;;;;10466799;28;20029;-82
2022/11/10 12:30:46;;;;;;;12.05;3.47;;;;;;;;;;10451786;28;20029;-81
2022/11/10 12:36:07;;;;;;;7.82;2.50;;;;;;;;;;10469095;28;20033;-81
2022/11/10 12:41:10;;;;;;;6.60;2.50;;;;;;;;;;10475272;28;20069;-81
2022/11/10 12:46:12;;;;;;;6.10;2.05;;;;;;;;;;10454010;28;20116;-81
2022/11/10 12:51:21;;;;;;;8.32;2.55;;;;;;;;;;10451825;28;20029;-81
2022/11/10 12:56:32;;;;;;;6.43;2.63;;;;;;;;;;10451556;28;20096;-81
2022/11/10 13:01:33;;;;;;;6.32;2.30;;;;;;;;;;10454394;28;20494;-81
2022/11/10 13:06:54;;;;;;;14.45;5.50;;;;;;;;;;10455182;28;20060;-82
2022/11/10 13:12:25;;;;;;;6.85;2.60;;;;;;;;;;10456664;28;20105;-81
2022/11/10 13:17:36;;;;;;;7.60;2.70;;;;;;;;;;10472895;28;20028;-82
2022/11/10 13:22:39;;;;;;;6.72;2.83;;;;;;;;;;10457251;28;20032;-81
2022/11/10 13:27:46;;;;;;;7.43;2.65;;;;;;;;;;10453669;28;20029;-81
2022/11/10 13:32:47;;;;;;;8.35;2.47;;;;;;;;;;10478283;28;20029;-80
2022/11/10 13:37:49;;;;;;;8.00;2.75;;;;;;;;;;10449397;28;20390;-80
2022/11/10 13:42:56;;;;;;;4.65;2.20;;;;;;;;;;10446263;28;20372;-82
2022/11/10 13:48:03;;;;;;;5.50;1.83;;;;;;;;;;10450092;28;20093;-81
2022/11/10 13:53:28;;;;;;;5.35;1.90;;;;;;;;;;10448767;28;20090;-80
2022/11/10 13:58:34;;;;;;;4.18;1.90;;;;;;;;;;10447637;28;20021;-81
2022/11/10 14:03:44;;;;;;;7.47;1.95;;;;;;;;;;10453523;28;20394;-81
2022/11/10 14:08:59;;;;;;;6.60;1.80;;;;;;;;;;10451960;28;20534;-81
2022/11/10 14:14:20;;;;;;;4.72;1.83;;;;;;;;;;10479161;23;20112;-80
2022/11/10 14:19:27;;;;;;;5.07;1.77;;;;;;;;;;10429746;28;20042;-81
2022/11/10 14:24:32;;;;;;;6.50;2.20;;;;;;;;;;10429320;28;20463;-83
2022/11/10 14:29:38;;;;;;;5.05;1.65;;;;;;;;;;10429939;28;20060;-84
2022/11/10 14:34:44;;;;;;;5.18;1.60;;;;;;;;;;10440692;28;20060;-82
2022/11/10 14:39:45;;;;;;;4.40;1.67;;;;;;;;;;10415760;28;20369;-84
2022/11/10 14:44:47;;;;;;;7.25;1.77;;;;;;;;;;10377876;28;20033;-85
2022/11/10 14:50:02;;;;;;;5.72;1.45;;;;;;;;;;10371284;28;20369;-85
2022/11/10 14:55:06;;;;;;;4.75;1.58;;;;;;;;;;10372663;28;20036;-86
2022/11/10 15:00:13;;;;;;;4.95;1.52;;;;;;;;;;10380000;28;20022;-86
2022/11/10 15:05:15;;;;;;;4.72;1.52;;;;;;;;;;10390374;28;20053;-84
2022/11/10 15:10:26;;;;;;;4.30;1.50;;;;;;;;;;10370067;28;20074;-85
2022/11/10 15:15:27;;;;;;;4.80;1.65;;;;;;;;;;10382303;28;20022;-84
2022/11/10 15:20:31;;;;;;;6.20;1.63;;;;;;;;;;10381725;28;20049;-85
2022/11/10 15:25:39;;;;;;;2.97;1.30;;;;;;;;;;10379493;28;20026;-85
2022/11/10 15:30:50;;;;;;;3.83;1.35;;;;;;;;;;10376937;28;20029;-85
2022/11/10 15:35:54;;;;;;;6.00;2.00;;;;;;;;;;10381348;28;20026;-82
2022/11/10 15:41:25;;;;;;;4.75;1.63;;;;;;;;;;10403233;28;20022;-83
2022/11/10 15:46:26;;;;;;;4.68;1.67;;;;;;;;;;10387706;28;20056;-86
2022/11/10 15:51:27;;;;;;;6.63;1.88;;;;;;;;;;10383167;28;20092;-83
2022/11/10 15:56:28;;;;;;;5.30;1.58;;;;;;;;;;10385951;28;20068;-83
2022/11/10 16:01:35;;;;;;;5.28;1.67;;;;;;;;;;10405545;28;20022;-83
2022/11/10 16:06:36;;;;;;;5.95;1.88;;;;;;;;;;10386507;28;20045;-83
2022/11/10 16:11:37;;;;;;;6.50;1.83;;;;;;;;;;10384094;28;20042;-85
2022/11/10 16:16:39;;;;;;;5.28;1.95;;;;;;;;;;10382757;28;20033;-85
2022/11/10 16:21:40;;;;;;;6.32;1.98;;;;;;;;;;10381139;28;20046;-84
2022/11/10 16:26:41;;;;;;;4.25;1.75;;;;;;;;;;10401519;28;20029;-85
2022/11/10 16:31:42;;;;;;;7.60;2.30;;;;;;;;;;10375847;28;20363;-86
2022/11/10 16:36:45;;;;;;;6.72;2.40;;;;;;;;;;10376768;28;20022;-86
2022/11/10 16:41:46;;;;;;;4.78;2.20;;;;;;;;;;10375884;28;20092;-85
2022/11/10 16:46:49;;;;;;;6.07;2.20;;;;;;;;;;10378372;28;20048;-86
2022/11/10 16:51:50;;;;;;;7.22;2.47;;;;;;;;;;10379942;28;20029;-86
2022/11/10 16:56:51;;;;;;;7.63;2.83;;;;;;;;;;10376182;28;20124;-86
2022/11/10 17:01:52;;;;;;;12.18;3.63;;;;;;;;;;10377793;28;20022;-86
2022/11/10 17:06:53;;;;;;;7.95;2.95;;;;;;;;;;10373601;28;20025;-86
2022/11/10 17:11:54;;;;;;;6.95;2.80;;;;;;;;;;10374688;28;20052;-86
2022/11/10 17:16:56;;;;;;;6.63;2.67;;;;;;;;;;10376334;28;20033;-85
2022/11/10 17:22:05;;;;;;;4.63;2.55;;;;;;;;;;10377632;28;20026;-87
2022/11/10 17:27:09;;;;;;;5.57;2.65;;;;;;;;;;10380343;28;20484;-86
2022/11/10 17:32:34;;;;;;;4.97;2.28;;;;;;;;;;10384076;28;20025;-86
2022/11/10 17:37:41;;;;;;;4.35;2.10;;;;;;;;;;10408695;28;20096;-86
2022/11/10 17:42:43;;;;;;;5.45;2.28;;;;;;;;;;10439163;28;20036;-86
2022/11/10 17:47:49;;;;;;;4.28;2.42;;;;;;;;;;10439626;28;20029;-86
2022/11/10 17:52:52;;;;;;;6.20;2.58;;;;;;;;;;10447385;28;20056;-85
2022/11/10 17:57:59;;;;;;;5.55;2.35;;;;;;;;;;10434122;28;20021;-85
2022/11/10 18:03:13;;;;;;;4.00;2.28;;;;;;;;;;10450853;28;20053;-85
2022/11/10 18:08:20;;;;;;;3.05;1.80;;;;;;;;;;10451557;28;20038;-85
2022/11/10 18:13:27;;;;;;;3.90;2.22;;;;;;;;;;10477312;28;20052;-85
2022/11/10 18:18:28;;;;;;;4.20;2.03;;;;;;;;;;10477686;28;20025;-85
2022/11/10 18:23:29;;;;;;;4.50;2.30;;;;;;;;;;10463039;28;20025;-86
2022/11/10 18:28:30;;;;;;;5.95;2.47;;;;;;;;;;10462070;28;20029;-85
2022/11/10 18:33:31;;;;;;;6.88;2.40;;;;;;;;;;10463296;28;20036;-86
2022/11/10 18:38:33;;;;;;;4.35;2.00;;;;;;;;;;10456308;28;20162;-86
2022/11/10 18:43:34;;;;;;;4.65;2.20;;;;;;;;;;10454710;28;20033;-86
2022/11/10 18:48:35;;;;;;;5.10;2.10;;;;;;;;;;10455519;28;20053;-85
2022/11/10 18:53:37;;;;;;;4.80;2.05;;;;;;;;;;10456682;28;20064;-86
2022/11/10 18:58:39;;;;;;;4.00;2.03;;;;;;;;;;10462143;28;20021;-85
2022/11/10 19:03:41;;;;;;;3.47;1.70;;;;;;;;;;10457651;28;20068;-86
2022/11/10 19:08:42;;;;;;;4.25;1.90;;;;;;;;;;10465460;28;20029;-86
2022/11/10 19:13:44;;;;;;;4.53;1.60;;;;;;;;;;10492016;28;20050;-86
2022/11/10 19:18:45;;;;;;;4.63;2.38;;;;;;;;;;10474309;28;20029;-86
2022/11/10 19:23:47;;;;;;;4.15;1.80;;;;;;;;;;10469722;28;20016;-86
2022/11/10 19:28:48;;;;;;;3.33;1.55;;;;;;;;;;10469149;28;20047;-86
2022/11/10 19:33:50;;;;;;;4.07;1.80;;;;;;;;;;10461196;28;20029;-86
2022/11/10 19:38:55;;;;;;;4.63;2.20;;;;;;;;;;10460441;28;20530;-86
2022/11/10 19:43:58;;;;;;;5.00;2.45;;;;;;;;;;10463197;28;20040;-86
2022/11/10 19:48:59;;;;;;;6.50;2.72;;;;;;;;;;10465369;28;20032;-86
2022/11/10 19:54:02;;;;;;;4.75;2.10;;;;;;;;;;10460560;28;20094;-85
2022/11/10 19:59:03;;;;;;;4.40;2.13;;;;;;;;;;10459830;28;20029;-85
2022/11/10 20:04:07;;;;;;;3.88;2.05;;;;;;;;;;10481325;28;20029;-85
2022/11/10 20:09:14;;;;;;;3.75;1.70;;;;;;;;;;10478408;28;20013;-84
2022/11/10 20:14:15;;;;;;;5.07;2.03;;;;;;;;;;10495372;28;20028;-87
2022/11/10 20:19:19;;;;;;;7.07;2.83;;;;;;;;;;10490512;28;20025;-83
